Armstrong, PA

3:55 PM EDT on July 07, 2015 (GMT -0400)
KPAWILLI1 | | Change Station
CLOSE
Current Station
Personal Weather Station
Location: Williamsport, PA
Elevation: 535 ft
Nearby Weather Stations

Elev 535 ft 41.25 °N, 76.96 °W | Updated 1 minute ago

Mostly Cloudy
Mostly Cloudy
87.4 °F
Feels Like 89 °F
N
0.0
Wind Variable Wind from North
Gusts 0.0 mph

Today
High -- | Low -- °F
--% Chance of Precip.
Yesterday
High -- | Low -- °F
Precip. -- in
5:42 AM 8:43 PM
Waning Gibbous, 62% visible
Pressure 29.92 in
Visibility 9.0 miles
Clouds Clear
Heat Index 89 °F
Dew Point 65 °F
Humidity 48%
Rainfall -999.00 in
Snow Depth Not available.
UV 10 out of 12
Pollen 2.00 out of 12
Air Quality Not available.
Flu Activity Not available.
METAR KIPT 071854Z 26010KT 9SM CLR 31/18 A2993 RMK AO2 SLP132 T03060183

More Conditions Fewer Conditions

Pressure 29.92 in
Visibility 9.0 miles
Clouds Clear
Heat Index 89 °F
Dew Point 65 °F
Humidity 48%
Rainfall -999.00 in
Snow Depth Not available.
UV 10 out of 12
Pollen 2.00 out of 12
Air Quality Not available.
Flu Activity Not available.
METAR KIPT 071854Z 26010KT 9SM CLR 31/18 A2993 RMK AO2 SLP132 T03060183

More Conditions Fewer Conditions

10-Day Weather Forecast

×

Almanac

Astronomy

Jul. 07, 2015 Rise Set
Actual Time
Civil Twilight
Nautical Twilight
Astronomical Twilight
Moon
Length of Visible Light
Length of Day
Tomorrow will be .
, % of the Moon is Illuminated

Today's Extremes

State Highs State Lows

Community

WunderPhotos

Upload Photos

1,835,884 photos uploaded!

WunderBlogs® & News

Nearby

Air Quality

  Air Quality AQ Index Pollutant
Not available.

Snow Depth

Station Depth Elevation

Earthquake Activity

City Distance Mag. Time & Date
Minimum magnitude displayed is 2.5.

Coastal Water Temperatures

Place Temperature

Stations

Nearby Weather Stations

Station Location Temp. Windchill Dew Point Humidity Wind Precip. Elev Updated Type